Roll, Arizona
Current Conditions -  °F | °C
As of 12:57 PM on Monday 26 Jan 2015 (Local Time) from KNYL Reporting Station
Overcast Overcast  
Wind Chill: 59°   Ceiling: 7000
Heat Index: 59°   Visibility: 10mi
Dew Point: 52°   Wind: 13mph
Humidity: 78%   Direction: 50°NE
Pressure: 30.09"   Gusts: NA
Location:  32.75°N, 113.99°W
Report Text: KNYL 261957Z 05011KT 10SM BKN070 BKN090 OVC120 15/11 A3009 RMK AO2 RAE12 SLP190 P0000 T01500111
Loading
Personal Weather Stations






























Interactive Weather Map New forecast layout! Learn more

10-Day Weather Forecast

Advertisements
Track Severe Weather on mobile